createdAt,value
2016-05-30T00:00:36.903Z,941.61
2016-05-30T00:01:36.859Z,941.61
2016-05-30T00:02:36.815Z,941.58
2016-05-30T00:03:36.755Z,941.53
2016-05-30T00:04:36.711Z,941.54
2016-05-30T00:05:36.667Z,941.52
2016-05-30T00:06:36.622Z,941.44
2016-05-30T00:07:36.579Z,941.43
2016-05-30T00:08:36.518Z,941.47
2016-05-30T00:09:36.474Z,941.45
2016-05-30T00:10:36.430Z,941.41
2016-05-30T00:11:36.386Z,941.43
2016-05-30T00:12:36.326Z,941.46
2016-05-30T00:13:36.298Z,941.45
2016-05-30T00:14:36.254Z,941.46
2016-05-30T00:15:36.178Z,941.46
2016-05-30T00:16:36.149Z,941.48
2016-05-30T00:17:36.090Z,941.46
2016-05-30T00:18:36.045Z,941.5
2016-05-30T00:19:36.001Z,941.46
2016-05-30T00:20:35.942Z,941.46
2016-05-30T00:21:35.897Z,941.48
2016-05-30T00:22:35.853Z,941.5
2016-05-30T00:23:35.809Z,941.49
2016-05-30T00:24:35.764Z,941.45
2016-05-30T00:25:35.720Z,941.45
2016-05-30T00:26:35.660Z,941.51
2016-05-30T00:27:35.616Z,941.5
2016-05-30T00:28:35.573Z,941.48
2016-05-30T00:29:35.513Z,941.44
2016-05-30T00:30:35.484Z,941.46
2016-05-30T00:31:35.424Z,941.45
2016-05-30T00:32:35.364Z,941.42
2016-05-30T00:33:35.335Z,941.45
2016-05-30T00:34:35.276Z,941.43
2016-05-30T00:35:35.232Z,941.48
2016-05-30T00:36:35.235Z,941.44
2016-05-30T00:37:35.128Z,941.42
2016-05-30T00:38:35.099Z,941.45
2016-05-30T00:39:35.039Z,941.42
2016-05-30T00:40:34.996Z,941.41
2016-05-30T00:41:34.936Z,941.45
2016-05-30T00:42:34.891Z,941.46
2016-05-30T00:43:34.847Z,941.49
2016-05-30T00:44:34.818Z,941.52
2016-05-30T00:45:34.743Z,941.51
2016-05-30T00:46:34.715Z,941.52
2016-05-30T00:47:34.655Z,941.52
2016-05-30T00:48:34.610Z,941.48
2016-05-30T00:49:34.567Z,941.5
2016-05-30T00:50:34.507Z,941.47
2016-05-30T00:51:34.462Z,941.45
2016-05-30T00:52:34.418Z,941.48
2016-05-30T00:53:34.373Z,941.47
2016-05-30T00:54:34.330Z,941.46
2016-05-30T00:55:34.270Z,941.48
2016-05-30T00:56:34.226Z,941.51
2016-05-30T00:57:34.181Z,941.5
2016-05-30T00:58:34.137Z,941.5
2016-05-30T00:59:34.078Z,941.52
2016-05-30T01:00:34.033Z,941.5
2016-05-30T01:01:33.989Z,941.56
2016-05-30T01:02:33.944Z,941.53
2016-05-30T01:03:33.900Z,941.55
2016-05-30T01:04:33.841Z,941.52
2016-05-30T01:05:33.797Z,941.55
2016-05-30T01:06:33.752Z,941.52
2016-05-30T01:07:33.708Z,941.52
2016-05-30T01:08:33.649Z,941.57
2016-05-30T01:09:33.604Z,941.57
2016-05-30T01:10:33.560Z,941.53
2016-05-30T01:11:33.515Z,941.54
2016-05-30T01:12:33.456Z,941.56
2016-05-30T01:13:33.427Z,941.54
2016-05-30T01:14:33.368Z,941.57
2016-05-30T01:15:33.323Z,941.52
2016-05-30T01:16:33.280Z,941.58
2016-05-30T01:17:33.220Z,941.6
2016-05-30T01:18:33.176Z,941.56
2016-05-30T01:19:33.131Z,941.58
2016-05-30T01:20:33.087Z,941.54
2016-05-30T01:21:33.028Z,941.56
2016-05-30T01:22:32.984Z,941.6
2016-05-30T01:23:32.939Z,941.54
2016-05-30T01:24:32.895Z,941.6
2016-05-30T01:25:32.835Z,941.56
2016-05-30T01:26:32.792Z,941.53
2016-05-30T01:27:32.747Z,941.55
2016-05-30T01:28:32.703Z,941.52
2016-05-30T01:29:32.658Z,941.54
2016-05-30T01:30:32.598Z,941.56
2016-05-30T01:31:32.555Z,941.53
2016-05-30T01:32:32.510Z,941.56
2016-05-30T01:33:32.466Z,941.56
2016-05-30T01:34:32.405Z,941.55
2016-05-30T01:35:32.362Z,941.55
2016-05-30T01:36:32.318Z,941.58
2016-05-30T01:37:32.274Z,941.59
2016-05-30T01:38:32.213Z,941.59
2016-05-30T01:39:32.169Z,941.56
2016-05-30T01:40:32.125Z,941.58
2016-05-30T01:41:32.082Z,941.58
2016-05-30T01:42:32.037Z,941.59
2016-05-30T01:43:31.993Z,941.55
2016-05-30T01:44:31.933Z,941.58
2016-05-30T01:45:31.888Z,941.62
2016-05-30T01:46:31.845Z,941.61
2016-05-30T01:47:31.800Z,941.63
2016-05-30T01:48:31.740Z,941.61
2016-05-30T01:49:31.696Z,941.59
2016-05-30T01:50:31.652Z,941.62
2016-05-30T01:51:31.795Z,941.63
2016-05-30T01:52:31.548Z,941.62
2016-05-30T01:53:31.504Z,941.62
2016-05-30T01:54:31.459Z,941.59
2016-05-30T01:55:31.415Z,941.63
2016-05-30T01:56:31.355Z,941.62
2016-05-30T01:57:31.311Z,941.63
2016-05-30T01:58:31.267Z,941.6
2016-05-30T01:59:31.223Z,941.57
2016-05-30T02:00:31.163Z,941.58
2016-05-30T02:01:31.136Z,941.56
2016-05-30T02:02:31.075Z,941.62
2016-05-30T02:03:31.030Z,941.65
2016-05-30T02:04:30.986Z,941.67
2016-05-30T02:05:30.927Z,941.68
2016-05-30T02:06:30.914Z,941.63
2016-05-30T02:07:30.839Z,941.69
2016-05-30T02:08:30.795Z,941.68
2016-05-30T02:09:30.734Z,941.7
2016-05-30T02:10:30.706Z,941.71
2016-05-30T02:11:30.646Z,941.75
2016-05-30T02:12:30.602Z,941.72
2016-05-30T02:13:30.558Z,941.77
2016-05-30T02:14:30.498Z,941.71
2016-05-30T02:15:30.454Z,941.75
2016-05-30T02:16:30.410Z,941.72
2016-05-30T02:17:30.350Z,941.81
2016-05-30T02:18:30.306Z,941.79
2016-05-30T02:19:30.262Z,941.79
2016-05-30T02:20:30.218Z,941.79
2016-05-30T02:21:30.376Z,941.84
2016-05-30T02:22:30.129Z,941.84
2016-05-30T02:23:30.069Z,941.86
2016-05-30T02:24:30.025Z,941.85
2016-05-30T02:25:29.981Z,941.82
2016-05-30T02:26:29.937Z,941.87
2016-05-30T02:27:29.876Z,941.83
2016-05-30T02:28:29.833Z,941.85
2016-05-30T02:29:29.789Z,941.8
2016-05-30T02:30:29.744Z,941.83
2016-05-30T02:31:29.684Z,941.77
2016-05-30T02:32:29.639Z,941.78
2016-05-30T02:33:29.597Z,941.77
2016-05-30T02:34:29.552Z,941.79
2016-05-30T02:35:29.508Z,941.77
2016-05-30T02:36:29.447Z,941.79
2016-05-30T02:37:29.419Z,941.82
2016-05-30T02:38:29.360Z,941.77
2016-05-30T02:39:29.328Z,941.81
2016-05-30T02:40:29.295Z,941.74
2016-05-30T02:41:29.277Z,941.74
2016-05-30T02:42:29.260Z,941.72
2016-05-30T02:43:29.244Z,941.77
2016-05-30T02:44:29.218Z,941.77
2016-05-30T02:45:29.168Z,941.78
2016-05-30T02:46:29.133Z,941.75
2016-05-30T02:47:29.098Z,941.81
2016-05-30T02:48:29.064Z,941.79
2016-05-30T02:49:29.011Z,941.79
2016-05-30T02:50:28.969Z,941.82
2016-05-30T02:51:28.929Z,941.81
2016-05-30T02:52:28.888Z,941.86
2016-05-30T02:53:28.832Z,941.82
2016-05-30T02:54:28.806Z,941.82
2016-05-30T02:55:28.747Z,941.83
2016-05-30T02:56:28.720Z,941.84
2016-05-30T02:57:28.661Z,941.87
2016-05-30T02:58:28.603Z,941.9
2016-05-30T02:59:28.559Z,941.88
2016-05-30T03:00:28.516Z,941.94
2016-05-30T03:01:28.473Z,941.9
2016-05-30T03:02:28.428Z,941.94
2016-05-30T03:03:28.370Z,941.86
2016-05-30T03:04:28.326Z,941.89
2016-05-30T03:05:28.282Z,941.91
2016-05-30T03:06:28.223Z,941.87
2016-05-30T03:07:28.178Z,941.92
2016-05-30T03:08:28.133Z,941.92
2016-05-30T03:09:28.090Z,941.93
2016-05-30T03:10:28.046Z,941.87
2016-05-30T03:11:27.986Z,941.86
2016-05-30T03:12:27.942Z,941.85
2016-05-30T03:13:27.897Z,941.88
2016-05-30T03:14:27.853Z,941.88
2016-05-30T03:15:27.809Z,941.88
2016-05-30T03:16:27.750Z,941.95
2016-05-30T03:17:27.705Z,941.97
2016-05-30T03:18:27.661Z,941.9
2016-05-30T03:19:27.616Z,941.95
2016-05-30T03:20:27.557Z,941.99
2016-05-30T03:21:27.528Z,941.96
2016-05-30T03:22:27.468Z,942.02
2016-05-30T03:23:27.424Z,942.03
2016-05-30T03:24:27.364Z,941.99
2016-05-30T03:25:27.321Z,942.03
2016-05-30T03:26:27.276Z,942
2016-05-30T03:27:27.231Z,942.04
2016-05-30T03:28:27.172Z,942.02
2016-05-30T03:29:27.127Z,942.02
2016-05-30T03:30:27.099Z,942.1
2016-05-30T03:31:27.039Z,942.06
2016-05-30T03:32:26.979Z,942.01
2016-05-30T03:33:26.935Z,942.06
2016-05-30T03:34:26.890Z,942.08
2016-05-30T03:35:26.862Z,942.07
2016-05-30T03:36:27.318Z,942.06
2016-05-30T03:37:26.978Z,942.09
2016-05-30T03:38:26.699Z,942.07
2016-05-30T03:39:26.655Z,942.05
2016-05-30T03:40:26.610Z,942.03
2016-05-30T03:41:26.567Z,942.08
2016-05-30T03:42:26.507Z,942.1
2016-05-30T03:43:26.462Z,942.08
2016-05-30T03:44:26.418Z,942.07
2016-05-30T03:45:26.359Z,942.08
2016-05-30T03:46:26.314Z,942.11
2016-05-30T03:47:26.270Z,942.13
2016-05-30T03:48:26.225Z,942.16
2016-05-30T03:49:26.181Z,942.16
2016-05-30T03:50:26.122Z,942.17
2016-05-30T03:51:26.469Z,942.21
2016-05-30T03:52:26.033Z,942.21
2016-05-30T03:53:25.989Z,942.25
2016-05-30T03:54:25.929Z,942.22
2016-05-30T03:55:25.885Z,942.27
2016-05-30T03:56:25.841Z,942.25
2016-05-30T03:57:25.797Z,942.23
2016-05-30T03:58:25.752Z,942.26
2016-05-30T03:59:25.693Z,942.28
2016-05-30T04:00:25.649Z,942.32
2016-05-30T04:01:25.604Z,942.32
2016-05-30T04:02:25.560Z,942.28
2016-05-30T04:03:25.515Z,942.32
2016-05-30T04:04:25.472Z,942.32
2016-05-30T04:05:25.412Z,942.3
2016-05-30T04:06:25.368Z,942.32
2016-05-30T04:07:25.308Z,942.35
2016-05-30T04:08:25.264Z,942.29
2016-05-30T04:09:25.220Z,942.31
2016-05-30T04:10:25.176Z,942.32
2016-05-30T04:11:25.132Z,942.3
2016-05-30T04:12:25.072Z,942.37
2016-05-30T04:13:25.027Z,942.32
2016-05-30T04:14:24.984Z,942.33
2016-05-30T04:15:24.939Z,942.35
2016-05-30T04:16:24.895Z,942.33
2016-05-30T04:17:24.836Z,942.34
2016-05-30T04:18:24.791Z,942.33
2016-05-30T04:19:24.747Z,942.29
2016-05-30T04:20:24.703Z,942.31
2016-05-30T04:21:24.658Z,942.32
2016-05-30T04:22:24.599Z,942.33
2016-05-30T04:23:24.555Z,942.33
2016-05-30T04:24:24.510Z,942.3
2016-05-30T04:25:24.466Z,942.32
2016-05-30T04:26:24.405Z,942.32
2016-05-30T04:27:24.362Z,942.28
2016-05-30T04:28:24.318Z,942.28
2016-05-30T04:29:24.273Z,942.29
2016-05-30T04:30:24.229Z,942.31
2016-05-30T04:31:24.169Z,942.28
2016-05-30T04:32:24.126Z,942.3
2016-05-30T04:33:24.081Z,942.3
2016-05-30T04:34:24.037Z,942.31
2016-05-30T04:35:23.976Z,942.35
2016-05-30T04:36:23.964Z,942.38
2016-05-30T04:37:23.905Z,942.39
2016-05-30T04:38:23.845Z,942.4
2016-05-30T04:39:23.784Z,942.4
2016-05-30T04:40:23.740Z,942.41
2016-05-30T04:41:23.696Z,942.4
2016-05-30T04:42:23.652Z,942.45
2016-05-30T04:43:23.609Z,942.44
2016-05-30T04:44:23.548Z,942.44
2016-05-30T04:45:23.503Z,942.47
2016-05-30T04:46:23.460Z,942.46
2016-05-30T04:47:23.416Z,942.49
2016-05-30T04:48:23.372Z,942.51
2016-05-30T04:49:23.328Z,942.49
2016-05-30T04:50:23.267Z,942.48
2016-05-30T04:51:23.270Z,942.5
2016-05-30T04:52:23.180Z,942.54
2016-05-30T04:53:23.135Z,942.52
2016-05-30T04:54:23.075Z,942.51
2016-05-30T04:55:23.031Z,942.52
2016-05-30T04:56:22.986Z,942.51
2016-05-30T04:57:22.927Z,942.5
2016-05-30T04:58:22.883Z,942.52
2016-05-30T04:59:22.854Z,942.54
2016-05-30T05:00:22.794Z,942.6
2016-05-30T05:01:22.750Z,942.54
2016-05-30T05:02:22.690Z,942.56
2016-05-30T05:03:22.646Z,942.54
2016-05-30T05:04:22.602Z,942.53
2016-05-30T05:05:22.573Z,942.52
2016-05-30T05:06:22.529Z,942.5
2016-05-30T05:07:22.454Z,942.51
2016-05-30T05:08:22.409Z,942.51
2016-05-30T05:09:22.365Z,942.55
2016-05-30T05:10:22.306Z,942.56
2016-05-30T05:11:22.261Z,942.52
2016-05-30T05:12:22.217Z,942.58
2016-05-30T05:13:22.173Z,942.57
2016-05-30T05:14:22.113Z,942.56
2016-05-30T05:15:22.069Z,942.56
2016-05-30T05:16:22.025Z,942.56
2016-05-30T05:17:21.981Z,942.56
2016-05-30T05:18:21.920Z,942.59
2016-05-30T05:19:21.877Z,942.56
2016-05-30T05:20:21.833Z,942.62
2016-05-30T05:21:21.789Z,942.58
2016-05-30T05:22:21.776Z,942.55
2016-05-30T05:23:21.684Z,942.56
2016-05-30T05:24:21.641Z,942.54
2016-05-30T05:25:21.596Z,942.54
2016-05-30T05:26:21.552Z,942.56
2016-05-30T05:27:21.492Z,942.55
2016-05-30T05:28:21.448Z,942.5
2016-05-30T05:29:21.404Z,942.53
2016-05-30T05:30:21.359Z,942.51
2016-05-30T05:31:21.519Z,942.5
2016-05-30T05:32:21.255Z,942.45
2016-05-30T05:33:21.211Z,942.49
2016-05-30T05:34:21.167Z,942.45
2016-05-30T05:35:21.123Z,942.45
2016-05-30T05:36:21.079Z,942.49
2016-05-30T05:37:21.018Z,942.44
2016-05-30T05:38:20.974Z,942.42
2016-05-30T05:39:20.931Z,942.44
2016-05-30T05:40:20.870Z,942.47
2016-05-30T05:41:20.827Z,942.46
2016-05-30T05:42:20.798Z,942.45
2016-05-30T05:43:20.738Z,942.45
2016-05-30T05:44:20.694Z,942.44
2016-05-30T05:45:20.634Z,942.46
2016-05-30T05:46:20.589Z,942.48
2016-05-30T05:47:20.546Z,942.47
2016-05-30T05:48:20.501Z,942.5
2016-05-30T05:49:20.442Z,942.49
2016-05-30T05:50:20.398Z,942.51
2016-05-30T05:51:20.353Z,942.49
2016-05-30T05:52:20.824Z,942.5
2016-05-30T05:53:20.249Z,942.51
2016-05-30T05:54:20.206Z,942.5
2016-05-30T05:55:20.161Z,942.53
2016-05-30T05:56:20.117Z,942.57
2016-05-30T05:57:20.072Z,942.57
2016-05-30T05:58:20.013Z,942.61
2016-05-30T05:59:19.969Z,942.56
2016-05-30T06:00:19.925Z,942.57
2016-05-30T06:01:19.880Z,942.57
2016-05-30T06:02:19.821Z,942.58
2016-05-30T06:03:19.777Z,942.61
2016-05-30T06:04:19.732Z,942.61
2016-05-30T06:05:19.688Z,942.59
2016-05-30T06:06:19.644Z,942.67
2016-05-30T06:07:19.584Z,942.66
2016-05-30T06:08:19.540Z,942.69
2016-05-30T06:09:19.496Z,942.66
2016-05-30T06:10:19.451Z,942.66
2016-05-30T06:11:19.407Z,942.7
2016-05-30T06:12:19.348Z,942.71
2016-05-30T06:13:19.303Z,942.67
2016-05-30T06:14:19.259Z,942.64
2016-05-30T06:15:19.215Z,942.64
2016-05-30T06:16:19.170Z,942.64
2016-05-30T06:17:19.111Z,942.64
2016-05-30T06:18:19.067Z,942.64
2016-05-30T06:19:19.022Z,942.7
2016-05-30T06:20:18.962Z,942.68
2016-05-30T06:21:18.919Z,942.68
2016-05-30T06:22:18.889Z,942.65
2016-05-30T06:23:18.830Z,942.66
2016-05-30T06:24:18.786Z,942.61
2016-05-30T06:25:18.725Z,942.64
2016-05-30T06:26:18.682Z,942.61
2016-05-30T06:27:18.653Z,942.68
2016-05-30T06:28:18.593Z,942.68
2016-05-30T06:29:18.549Z,942.69
2016-05-30T06:30:18.505Z,942.67
2016-05-30T06:31:18.445Z,942.72
2016-05-30T06:32:18.401Z,942.7
2016-05-30T06:33:18.357Z,942.69
2016-05-30T06:34:18.313Z,942.72
2016-05-30T06:35:18.316Z,942.78
2016-05-30T06:36:18.209Z,942.72
2016-05-30T06:37:18.165Z,942.75
2016-05-30T06:38:18.120Z,942.77
2016-05-30T06:39:18.060Z,942.77
2016-05-30T06:40:18.016Z,942.75
2016-05-30T06:41:17.972Z,942.73
2016-05-30T06:42:17.929Z,942.72
2016-05-30T06:43:17.868Z,942.71
2016-05-30T06:44:17.824Z,942.73
2016-05-30T06:45:17.779Z,942.68
2016-05-30T06:46:17.736Z,942.68
2016-05-30T06:47:17.692Z,942.67
2016-05-30T06:48:17.631Z,942.69
2016-05-30T06:49:17.588Z,942.71
2016-05-30T06:50:17.559Z,942.71
2016-05-30T06:51:17.952Z,942.67
2016-05-30T06:52:17.815Z,942.69
2016-05-30T06:53:17.395Z,942.68
2016-05-30T06:54:17.350Z,942.67
2016-05-30T06:55:17.323Z,942.73
2016-05-30T06:56:17.278Z,942.73
2016-05-30T06:57:17.219Z,942.74
2016-05-30T06:58:17.175Z,942.74
2016-05-30T06:59:17.130Z,942.74
2016-05-30T07:00:19.024Z,942.78
2016-05-30T07:01:17.026Z,942.79
2016-05-30T07:02:16.982Z,942.77
2016-05-30T07:03:16.922Z,942.73
2016-05-30T07:04:16.878Z,942.73
2016-05-30T07:05:16.834Z,942.74
2016-05-30T07:06:16.790Z,942.74
2016-05-30T07:07:16.746Z,942.77
2016-05-30T07:08:16.685Z,942.73
2016-05-30T07:09:16.641Z,942.76
2016-05-30T07:10:16.596Z,942.76
2016-05-30T07:11:16.554Z,942.76
2016-05-30T07:12:16.509Z,942.79
2016-05-30T07:13:16.448Z,942.75
2016-05-30T07:14:16.405Z,942.79
2016-05-30T07:15:16.360Z,942.77
2016-05-30T07:16:16.301Z,942.78
2016-05-30T07:17:16.257Z,942.76
2016-05-30T07:18:16.213Z,942.77
2016-05-30T07:19:16.168Z,942.77
2016-05-30T07:20:16.109Z,942.81
2016-05-30T07:21:16.080Z,942.79
2016-05-30T07:22:16.020Z,942.8
2016-05-30T07:23:15.976Z,942.78
2016-05-30T07:24:15.931Z,942.78
2016-05-30T07:25:15.887Z,942.73
2016-05-30T07:26:15.844Z,942.82
2016-05-30T07:27:15.784Z,942.78
2016-05-30T07:28:15.739Z,942.75
2016-05-30T07:29:15.695Z,942.79
2016-05-30T07:30:15.667Z,942.74
2016-05-30T07:31:15.607Z,942.76
2016-05-30T07:32:15.563Z,942.75
2016-05-30T07:33:15.502Z,942.76
2016-05-30T07:34:15.458Z,942.78
2016-05-30T07:35:15.414Z,942.76
2016-05-30T07:36:15.371Z,942.74
2016-05-30T07:37:15.326Z,942.78
2016-05-30T07:38:15.282Z,942.74
2016-05-30T07:39:15.221Z,942.81
2016-05-30T07:40:16.241Z,942.73
2016-05-30T07:41:15.134Z,942.78
2016-05-30T07:42:15.090Z,942.79
2016-05-30T07:43:15.029Z,942.81
2016-05-30T07:44:14.986Z,942.82
2016-05-30T07:45:14.941Z,942.82
2016-05-30T07:46:14.897Z,942.79
2016-05-30T07:47:14.853Z,942.85
2016-05-30T07:48:14.809Z,942.81
2016-05-30T07:49:14.765Z,942.86
2016-05-30T07:50:14.720Z,942.86
2016-05-30T07:51:14.676Z,942.84
2016-05-30T07:52:14.616Z,942.85
2016-05-30T07:53:14.572Z,942.9
2016-05-30T07:54:14.512Z,942.92
2016-05-30T07:55:16.125Z,942.89
2016-05-30T07:56:14.425Z,942.84
2016-05-30T07:57:14.380Z,942.85
2016-05-30T07:58:14.336Z,942.85
2016-05-30T07:59:14.291Z,942.87
2016-05-30T08:00:14.231Z,942.89
2016-05-30T08:01:14.188Z,942.95
2016-05-30T08:02:14.144Z,942.87
2016-05-30T08:03:14.099Z,942.9
2016-05-30T08:04:14.055Z,942.96
2016-05-30T08:05:13.995Z,942.94
2016-05-30T08:06:13.966Z,942.93
2016-05-30T08:07:13.922Z,942.92
2016-05-30T08:08:13.863Z,942.92
2016-05-30T08:09:13.819Z,942.97
2016-05-30T08:10:13.774Z,942.99
2016-05-30T08:11:13.715Z,942.96
2016-05-30T08:12:13.670Z,942.95
2016-05-30T08:13:13.626Z,942.92
2016-05-30T08:14:13.582Z,942.94
2016-05-30T08:15:13.538Z,942.91
2016-05-30T08:16:13.494Z,942.96
2016-05-30T08:17:13.449Z,942.97
2016-05-30T08:18:13.390Z,942.95
2016-05-30T08:19:13.345Z,943
2016-05-30T08:20:13.301Z,942.96
2016-05-30T08:21:13.257Z,942.94
2016-05-30T08:22:13.213Z,942.99
2016-05-30T08:23:13.169Z,943
2016-05-30T08:24:13.108Z,942.93
2016-05-30T08:25:13.064Z,942.87
2016-05-30T08:26:13.020Z,942.97
2016-05-30T08:27:12.992Z,942.96
2016-05-30T08:28:12.932Z,942.97
2016-05-30T08:29:12.888Z,942.94
2016-05-30T08:30:12.828Z,942.89
2016-05-30T08:31:12.783Z,942.96
2016-05-30T08:32:12.739Z,942.91
2016-05-30T08:33:12.695Z,942.88
2016-05-30T08:34:12.652Z,942.87
2016-05-30T08:35:12.607Z,942.96
2016-05-30T08:36:12.547Z,942.95
2016-05-30T08:37:12.503Z,942.94
2016-05-30T08:38:12.458Z,942.95
2016-05-30T08:39:12.415Z,943.01
2016-05-30T08:40:12.355Z,942.99
2016-05-30T08:41:12.311Z,942.98
2016-05-30T08:42:12.267Z,943
2016-05-30T08:43:12.221Z,943.04
2016-05-30T08:44:12.179Z,943.13
2016-05-30T08:45:12.134Z,943.08
2016-05-30T08:46:12.090Z,943.07
2016-05-30T08:47:12.029Z,943.12
2016-05-30T08:48:12.001Z,943.06
2016-05-30T08:49:11.942Z,943.13
2016-05-30T08:50:11.898Z,943.06
2016-05-30T08:51:11.854Z,943.12
2016-05-30T08:52:11.809Z,943.13
2016-05-30T08:53:11.764Z,943.08
2016-05-30T08:54:11.720Z,943.14
2016-05-30T08:55:11.661Z,943.11
2016-05-30T08:56:11.632Z,943.12
2016-05-30T08:57:11.573Z,943.13
2016-05-30T08:58:11.529Z,943.12
2016-05-30T08:59:11.484Z,943.13
2016-05-30T09:00:11.439Z,943.17
2016-05-30T09:01:11.380Z,943.19
2016-05-30T09:02:11.336Z,943.21
2016-05-30T09:03:11.292Z,943.23
2016-05-30T09:04:11.248Z,943.18
2016-05-30T09:05:11.203Z,943.17
2016-05-30T09:06:11.159Z,943.21
2016-05-30T09:07:11.271Z,943.23
2016-05-30T09:08:11.056Z,943.23
2016-05-30T09:09:11.011Z,943.26
2016-05-30T09:10:10.982Z,943.2
2016-05-30T09:11:10.922Z,943.3
2016-05-30T09:12:10.879Z,943.2
2016-05-30T09:13:10.835Z,943.26
2016-05-30T09:14:10.790Z,943.21
2016-05-30T09:15:10.746Z,943.25
2016-05-30T09:16:10.685Z,943.23
2016-05-30T09:17:10.657Z,943.26
2016-05-30T09:18:10.598Z,943.25
2016-05-30T09:19:10.554Z,943.26
2016-05-30T09:20:10.510Z,943.25
2016-05-30T09:21:10.481Z,943.23
2016-05-30T09:22:10.437Z,943.26
2016-05-30T09:23:10.361Z,943.26
2016-05-30T09:24:10.317Z,943.29
2016-05-30T09:25:10.273Z,943.25
2016-05-30T09:26:10.229Z,943.32
2016-05-30T09:27:10.184Z,943.37
2016-05-30T09:28:10.124Z,943.27
2016-05-30T09:29:10.081Z,943.37
2016-05-30T09:30:10.036Z,943.32
2016-05-30T09:31:09.992Z,943.35
2016-05-30T09:32:09.948Z,943.31
2016-05-30T09:33:09.904Z,943.31
2016-05-30T09:34:09.844Z,943.34
2016-05-30T09:35:09.816Z,943.32
2016-05-30T09:36:09.755Z,943.28
2016-05-30T09:37:09.712Z,943.29
2016-05-30T09:38:09.667Z,943.31
2016-05-30T09:39:09.638Z,943.3
2016-05-30T09:40:09.563Z,943.26
2016-05-30T09:41:09.519Z,943.28
2016-05-30T09:42:09.490Z,943.28
2016-05-30T09:43:09.447Z,943.3
2016-05-30T09:44:09.402Z,943.26
2016-05-30T09:45:09.357Z,943.28
2016-05-30T09:46:09.299Z,943.21
2016-05-30T09:47:09.254Z,943.21
2016-05-30T09:48:09.209Z,943.26
2016-05-30T09:49:09.150Z,943.19
2016-05-30T09:50:09.106Z,943.21
2016-05-30T09:51:09.062Z,943.21
2016-05-30T09:52:09.017Z,943.19
2016-05-30T09:53:08.973Z,943.2
2016-05-30T09:54:08.912Z,943.25
2016-05-30T09:55:08.869Z,943.23
2016-05-30T09:56:08.840Z,943.17
2016-05-30T09:57:08.781Z,943.19
2016-05-30T09:58:08.752Z,943.2
2016-05-30T09:59:08.692Z,943.17
2016-05-30T10:00:08.648Z,943.15
2016-05-30T10:01:08.604Z,943.16
2016-05-30T10:02:08.544Z,943.16
2016-05-30T10:03:08.500Z,943.14
2016-05-30T10:04:08.456Z,943.11
2016-05-30T10:05:08.412Z,943.16
2016-05-30T10:06:08.367Z,943.18
2016-05-30T10:07:08.323Z,943.17
2016-05-30T10:08:08.280Z,943.25
2016-05-30T10:09:08.236Z,943.2
2016-05-30T10:10:08.191Z,943.19
2016-05-30T10:11:08.147Z,943.15
2016-05-30T10:12:08.103Z,943.16
2016-05-30T10:13:08.058Z,943.15
2016-05-30T10:14:07.999Z,943.17
2016-05-30T10:15:07.970Z,943.15
2016-05-30T10:16:07.910Z,943.22
2016-05-30T10:17:07.866Z,943.19
2016-05-30T10:18:07.821Z,943.16
2016-05-30T10:19:07.762Z,943.15
2016-05-30T10:20:07.718Z,943.15
2016-05-30T10:21:07.673Z,943.14
2016-05-30T10:22:07.629Z,943.08
2016-05-30T10:23:07.585Z,943.07
2016-05-30T10:24:07.541Z,943.04
2016-05-30T10:25:07.496Z,943.03
2016-05-30T10:26:07.453Z,943.02
2016-05-30T10:27:07.393Z,943.02
2016-05-30T10:28:07.348Z,942.98
2016-05-30T10:29:07.304Z,942.96
2016-05-30T10:30:07.260Z,943.02
2016-05-30T10:31:07.216Z,942.98
2016-05-30T10:32:07.172Z,943.04
2016-05-30T10:33:07.128Z,942.97
2016-05-30T10:34:07.083Z,942.96
2016-05-30T10:35:07.039Z,942.99
2016-05-30T10:36:06.995Z,943.01
2016-05-30T10:37:07.889Z,942.96
2016-05-30T10:38:06.891Z,942.98
2016-05-30T10:39:06.863Z,942.97
2016-05-30T10:40:06.802Z,943.04
2016-05-30T10:41:06.775Z,943.01
2016-05-30T10:42:06.730Z,942.98
2016-05-30T10:43:06.670Z,943.04
2016-05-30T10:44:06.627Z,943.05
2016-05-30T10:45:06.582Z,943.03
2016-05-30T10:46:06.537Z,943.04
2016-05-30T10:47:06.494Z,943.07
2016-05-30T10:48:06.449Z,943.09
2016-05-30T10:49:06.404Z,943.14
2016-05-30T10:50:06.360Z,943.08
2016-05-30T10:51:06.317Z,943.09
2016-05-30T10:52:06.273Z,943.12
2016-05-30T10:53:06.229Z,943.09
2016-05-30T10:54:06.185Z,943.07
2016-05-30T10:55:06.124Z,943.1
2016-05-30T10:56:06.080Z,943.14
2016-05-30T10:57:06.037Z,943.11
2016-05-30T10:58:05.992Z,943.1
2016-05-30T10:59:05.948Z,943.1
2016-05-30T11:00:05.919Z,943.08
2016-05-30T11:01:05.859Z,943.11
2016-05-30T11:02:05.815Z,943.07
2016-05-30T11:03:05.770Z,943.05
2016-05-30T11:04:05.726Z,943.1
2016-05-30T11:05:05.683Z,943.06
2016-05-30T11:06:05.638Z,943.06
2016-05-30T11:07:05.578Z,943.07
2016-05-30T11:08:05.534Z,943.11
2016-05-30T11:09:05.505Z,943.03
2016-05-30T11:10:05.446Z,943.08
2016-05-30T11:11:05.402Z,943.07
2016-05-30T11:12:05.358Z,943.1
2016-05-30T11:13:05.313Z,943.08
2016-05-30T11:14:05.269Z,943.04
2016-05-30T11:15:05.225Z,943.07
2016-05-30T11:16:05.180Z,943.06
2016-05-30T11:17:05.136Z,943.05
2016-05-30T11:18:05.090Z,943.09
2016-05-30T11:19:05.077Z,943.02
2016-05-30T11:20:05.002Z,943.01
2016-05-30T11:21:04.973Z,943.02
2016-05-30T11:22:05.291Z,943.03
2016-05-30T11:23:04.869Z,943.04
2016-05-30T11:24:04.825Z,943.04
2016-05-30T11:25:04.780Z,942.97
2016-05-30T11:26:04.737Z,942.99
2016-05-30T11:27:04.707Z,943.03
2016-05-30T11:28:04.648Z,943.08
2016-05-30T11:29:04.603Z,943.03
2016-05-30T11:30:04.560Z,943.06
2016-05-30T11:31:04.531Z,943.08
2016-05-30T11:32:04.487Z,943
2016-05-30T11:33:04.426Z,943.06
2016-05-30T11:34:04.383Z,943
2016-05-30T11:35:04.339Z,942.92
2016-05-30T11:36:04.295Z,943.03
2016-05-30T11:37:04.469Z,942.93
2016-05-30T11:38:04.222Z,943.03
2016-05-30T11:39:04.161Z,943.03
2016-05-30T11:40:04.118Z,943.03
2016-05-30T11:41:04.089Z,943.07
2016-05-30T11:42:04.029Z,943.07
2016-05-30T11:43:03.985Z,943.05
2016-05-30T11:44:03.941Z,942.97
2016-05-30T11:45:03.897Z,943.01
2016-05-30T11:46:03.867Z,943.04
2016-05-30T11:47:03.844Z,943.05
2016-05-30T11:48:03.820Z,943.02
2016-05-30T11:49:03.796Z,943
2016-05-30T11:50:03.772Z,943.05
2016-05-30T11:51:03.739Z,942.97
2016-05-30T11:52:03.717Z,943
2016-05-30T11:53:03.665Z,943.05
2016-05-30T11:54:03.628Z,943.11
2016-05-30T11:55:03.591Z,943.02
2016-05-30T11:56:03.550Z,942.98
2016-05-30T11:57:03.508Z,943
2016-05-30T11:58:03.468Z,942.99
2016-05-30T11:59:03.426Z,942.97
2016-05-30T12:00:03.385Z,942.99
2016-05-30T12:01:03.358Z,942.99
2016-05-30T12:02:03.299Z,943.04
2016-05-30T12:03:03.256Z,942.99
2016-05-30T12:04:03.213Z,942.97
2016-05-30T12:05:03.185Z,942.98
2016-05-30T12:06:03.142Z,942.99
2016-05-30T12:07:03.083Z,942.98
2016-05-30T12:08:03.054Z,942.94
2016-05-30T12:09:02.995Z,942.95
2016-05-30T12:10:02.967Z,942.95
2016-05-30T12:11:02.923Z,942.91
2016-05-30T12:12:02.879Z,942.95
2016-05-30T12:13:02.834Z,942.95
2016-05-30T12:14:02.790Z,942.99
2016-05-30T12:15:02.745Z,942.94
2016-05-30T12:16:02.701Z,942.91
2016-05-30T12:17:02.658Z,942.96
2016-05-30T12:18:02.614Z,942.91
2016-05-30T12:19:02.570Z,942.92
2016-05-30T12:20:02.525Z,942.92
2016-05-30T12:21:02.481Z,942.9
2016-05-30T12:22:02.453Z,942.89
2016-05-30T12:23:02.392Z,942.88
2016-05-30T12:24:02.348Z,942.85
2016-05-30T12:25:02.305Z,942.87
2016-05-30T12:26:02.260Z,942.91
2016-05-30T12:27:02.216Z,942.96
2016-05-30T12:28:02.172Z,942.88
2016-05-30T12:29:02.143Z,942.96
2016-05-30T12:30:02.083Z,942.93
2016-05-30T12:31:02.039Z,942.93